sensor_id;sensor_type;location;lat;lon;timestamp;pressure;altitude;pressure_sealevel;temperature;humidity
9774;BME280;4926;42.670;23.316;2023-04-02T00:01:21;93653.75;;;9.46;73.05
9774;BME280;4926;42.670;23.316;2023-04-02T00:04:11;93654.56;;;9.55;72.98
9774;BME280;4926;42.670;23.316;2023-04-02T00:06:42;93620.91;;;9.42;73.03
9774;BME280;4926;42.670;23.316;2023-04-02T00:09:34;93612.25;;;9.37;72.57
9774;BME280;4926;42.670;23.316;2023-04-02T00:12:13;93649.88;;;9.52;72.28
9774;BME280;4926;42.670;23.316;2023-04-02T00:14:46;93646.59;;;9.55;72.17
9774;BME280;4926;42.670;23.316;2023-04-02T00:17:13;93661.59;;;9.51;72.03
9774;BME280;4926;42.670;23.316;2023-04-02T00:19:44;93646.66;;;9.42;71.88
9774;BME280;4926;42.670;23.316;2023-04-02T00:22:16;93624.63;;;9.41;71.59
9774;BME280;4926;42.670;23.316;2023-04-02T00:24:43;93618.56;;;9.41;71.75
9774;BME280;4926;42.670;23.316;2023-04-02T00:27:13;93640.94;;;9.48;71.72
9774;BME280;4926;42.670;23.316;2023-04-02T00:29:47;93636.16;;;9.59;71.70
9774;BME280;4926;42.670;23.316;2023-04-02T00:32:19;93638.63;;;9.55;71.36
9774;BME280;4926;42.670;23.316;2023-04-02T00:34:49;93625.16;;;9.52;70.84
9774;BME280;4926;42.670;23.316;2023-04-02T00:37:19;93623.31;;;9.52;70.78
9774;BME280;4926;42.670;23.316;2023-04-02T00:39:50;93614.38;;;9.48;70.66
9774;BME280;4926;42.670;23.316;2023-04-02T00:42:18;93621.44;;;9.53;70.50
9774;BME280;4926;42.670;23.316;2023-04-02T00:44:47;93627.13;;;9.60;69.37
9774;BME280;4926;42.670;23.316;2023-04-02T00:47:18;93616.81;;;9.58;69.26
9774;BME280;4926;42.670;23.316;2023-04-02T00:49:50;93625.13;;;9.65;68.99
9774;BME280;4926;42.670;23.316;2023-04-02T00:52:23;93623.19;;;9.57;69.24
9774;BME280;4926;42.670;23.316;2023-04-02T00:54:57;93626.06;;;9.69;69.10
9774;BME280;4926;42.670;23.316;2023-04-02T00:57:25;93616.97;;;9.62;68.21
9774;BME280;4926;42.670;23.316;2023-04-02T00:59:56;93626.44;;;9.76;68.30
9774;BME280;4926;42.670;23.316;2023-04-02T01:02:26;93627.41;;;9.80;68.34
9774;BME280;4926;42.670;23.316;2023-04-02T01:04:56;93629.09;;;9.76;68.26
9774;BME280;4926;42.670;23.316;2023-04-02T01:07:34;93617.22;;;9.74;68.58
9774;BME280;4926;42.670;23.316;2023-04-02T01:10:18;93623.91;;;9.71;68.81
9774;BME280;4926;42.670;23.316;2023-04-02T01:12:57;93607.94;;;9.71;69.00
9774;BME280;4926;42.670;23.316;2023-04-02T01:15:47;93626.44;;;9.76;68.67
9774;BME280;4926;42.670;23.316;2023-04-02T01:18:25;93624.63;;;9.63;68.77
9774;BME280;4926;42.670;23.316;2023-04-02T01:21:10;93613.66;;;9.56;69.16
9774;BME280;4926;42.670;23.316;2023-04-02T01:23:51;93627.16;;;9.68;68.62
9774;BME280;4926;42.670;23.316;2023-04-02T01:26:27;93612.31;;;9.67;68.41
9774;BME280;4926;42.670;23.316;2023-04-02T01:29:03;93630.19;;;9.75;68.14
9774;BME280;4926;42.670;23.316;2023-04-02T01:31:33;93630.19;;;9.75;67.53
9774;BME280;4926;42.670;23.316;2023-04-02T01:34:02;93634.03;;;9.69;67.88
9774;BME280;4926;42.670;23.316;2023-04-02T01:36:35;93618.22;;;9.64;67.69
9774;BME280;4926;42.670;23.316;2023-04-02T01:39:10;93639.00;;;9.84;67.54
9774;BME280;4926;42.670;23.316;2023-04-02T01:41:41;93604.34;;;9.67;66.90
9774;BME280;4926;42.670;23.316;2023-04-02T01:44:15;93626.59;;;9.80;67.32
9774;BME280;4926;42.670;23.316;2023-04-02T01:46:47;93643.25;;;9.94;66.81
9774;BME280;4926;42.670;23.316;2023-04-02T01:49:20;93625.22;;;9.82;68.36
9774;BME280;4926;42.670;23.316;2023-04-02T01:51:51;93637.22;;;9.80;70.08
9774;BME280;4926;42.670;23.316;2023-04-02T01:54:21;93642.88;;;9.56;72.85
9774;BME280;4926;42.670;23.316;2023-04-02T01:56:49;93660.53;;;9.17;75.36
9774;BME280;4926;42.670;23.316;2023-04-02T01:59:19;93662.06;;;8.82;78.04
9774;BME280;4926;42.670;23.316;2023-04-02T02:01:51;93666.91;;;8.66;79.81
9774;BME280;4926;42.670;23.316;2023-04-02T02:04:24;93676.91;;;8.56;81.80
9774;BME280;4926;42.670;23.316;2023-04-02T02:07:00;93669.06;;;8.51;82.72
9774;BME280;4926;42.670;23.316;2023-04-02T02:09:29;93668.03;;;8.20;84.33
9774;BME280;4926;42.670;23.316;2023-04-02T02:11:57;93678.19;;;7.85;87.72
9774;BME280;4926;42.670;23.316;2023-04-02T02:14:30;93674.84;;;7.80;88.89
9774;BME280;4926;42.670;23.316;2023-04-02T02:16:59;93662.88;;;7.82;88.15
9774;BME280;4926;42.670;23.316;2023-04-02T02:19:32;93683.13;;;7.92;87.62
9774;BME280;4926;42.670;23.316;2023-04-02T02:22:12;93686.94;;;8.00;86.02
9774;BME280;4926;42.670;23.316;2023-04-02T02:24:42;93681.66;;;8.00;85.47
9774;BME280;4926;42.670;23.316;2023-04-02T02:30:14;93676.50;;;8.22;84.32
9774;BME280;4926;42.670;23.316;2023-04-02T02:32:48;93682.78;;;8.26;83.07
9774;BME280;4926;42.670;23.316;2023-04-02T02:35:22;93664.22;;;8.26;82.88
9774;BME280;4926;42.670;23.316;2023-04-02T02:37:56;93635.25;;;8.16;82.25
9774;BME280;4926;42.670;23.316;2023-04-02T02:40:28;93660.31;;;8.37;81.28
9774;BME280;4926;42.670;23.316;2023-04-02T02:43:00;93664.34;;;8.48;81.42
9774;BME280;4926;42.670;23.316;2023-04-02T02:45:34;93655.81;;;8.51;79.96
9774;BME280;4926;42.670;23.316;2023-04-02T02:48:07;93649.03;;;8.45;78.99
9774;BME280;4926;42.670;23.316;2023-04-02T02:50:40;93646.88;;;8.60;78.03
9774;BME280;4926;42.670;23.316;2023-04-02T02:53:15;93660.41;;;8.72;76.89
9774;BME280;4926;42.670;23.316;2023-04-02T02:55:43;93660.50;;;8.81;76.58
9774;BME280;4926;42.670;23.316;2023-04-02T02:58:14;93642.72;;;8.81;75.86
9774;BME280;4926;42.670;23.316;2023-04-02T03:00:44;93652.50;;;8.94;74.90
9774;BME280;4926;42.670;23.316;2023-04-02T03:03:15;93643.25;;;9.06;73.50
9774;BME280;4926;42.670;23.316;2023-04-02T03:05:43;93639.56;;;9.15;73.17
9774;BME280;4926;42.670;23.316;2023-04-02T03:08:15;93644.78;;;9.20;72.50
9774;BME280;4926;42.670;23.316;2023-04-02T03:10:49;93642.22;;;9.29;71.81
9774;BME280;4926;42.670;23.316;2023-04-02T03:13:22;93630.25;;;9.18;72.01
9774;BME280;4926;42.670;23.316;2023-04-02T03:15:59;93636.09;;;9.28;71.24
9774;BME280;4926;42.670;23.316;2023-04-02T03:18:37;93646.47;;;9.38;71.23
9774;BME280;4926;42.670;23.316;2023-04-02T03:21:17;93634.66;;;9.44;70.69
9774;BME280;4926;42.670;23.316;2023-04-02T03:23:49;93653.25;;;9.44;71.86
9774;BME280;4926;42.670;23.316;2023-04-02T03:26:27;93636.28;;;9.32;73.51
9774;BME280;4926;42.670;23.316;2023-04-02T03:29:00;93658.31;;;9.32;74.94
9774;BME280;4926;42.670;23.316;2023-04-02T03:31:35;93667.31;;;8.60;79.88
9774;BME280;4926;42.670;23.316;2023-04-02T03:34:07;93696.84;;;8.40;84.13
9774;BME280;4926;42.670;23.316;2023-04-02T03:36:58;93690.59;;;8.36;84.96
9774;BME280;4926;42.670;23.316;2023-04-02T03:39:34;93689.38;;;8.28;86.08
9774;BME280;4926;42.670;23.316;2023-04-02T03:42:06;93704.13;;;7.88;88.44
9774;BME280;4926;42.670;23.316;2023-04-02T03:44:38;93706.25;;;7.86;90.29
9774;BME280;4926;42.670;23.316;2023-04-02T03:47:13;93719.91;;;7.24;96.75
9774;BME280;4926;42.670;23.316;2023-04-02T03:49:45;93721.28;;;7.03;100.00
9774;BME280;4926;42.670;23.316;2023-04-02T03:52:25;93703.97;;;7.11;100.00
9774;BME280;4926;42.670;23.316;2023-04-02T03:54:53;93690.72;;;7.11;100.00
9774;BME280;4926;42.670;23.316;2023-04-02T03:57:25;93687.09;;;7.07;100.00
9774;BME280;4926;42.670;23.316;2023-04-02T03:59:59;93676.50;;;6.88;100.00
9774;BME280;4926;42.670;23.316;2023-04-02T04:02:39;93679.16;;;7.07;100.00
9774;BME280;4926;42.670;23.316;2023-04-02T04:05:18;93662.41;;;7.11;100.00
9774;BME280;4926;42.670;23.316;2023-04-02T04:07:48;93683.16;;;7.04;100.00
9774;BME280;4926;42.670;23.316;2023-04-02T04:10:19;93665.91;;;6.88;100.00
9774;BME280;4926;42.670;23.316;2023-04-02T04:12:48;93682.91;;;6.63;100.00
9774;BME280;4926;42.670;23.316;2023-04-02T04:15:21;93691.13;;;6.62;100.00
9774;BME280;4926;42.670;23.316;2023-04-02T04:17:53;93683.13;;;6.20;100.00
9774;BME280;4926;42.670;23.316;2023-04-02T04:20:24;93688.94;;;6.22;100.00
9774;BME280;4926;42.670;23.316;2023-04-02T04:22:52;93694.66;;;6.29;100.00
9774;BME280;4926;42.670;23.316;2023-04-02T04:25:24;93692.25;;;6.32;100.00
9774;BME280;4926;42.670;23.316;2023-04-02T04:28:02;93700.78;;;6.48;100.00
9774;BME280;4926;42.670;23.316;2023-04-02T04:30:44;93696.28;;;6.72;100.00
9774;BME280;4926;42.670;23.316;2023-04-02T04:33:17;93701.56;;;6.72;100.00
9774;BME280;4926;42.670;23.316;2023-04-02T04:35:57;93703.31;;;6.58;100.00
9774;BME280;4926;42.670;23.316;2023-04-02T04:38:29;93704.28;;;6.67;100.00
9774;BME280;4926;42.670;23.316;2023-04-02T04:41:00;93718.06;;;6.64;100.00
9774;BME280;4926;42.670;23.316;2023-04-02T04:43:37;93720.19;;;6.62;100.00
9774;BME280;4926;42.670;23.316;2023-04-02T04:46:09;93710.97;;;6.36;100.00
9774;BME280;4926;42.670;23.316;2023-04-02T04:48:49;93718.06;;;6.17;100.00
9774;BME280;4926;42.670;23.316;2023-04-02T04:51:24;93716.88;;;6.28;100.00
9774;BME280;4926;42.670;23.316;2023-04-02T04:53:52;93713.16;;;6.29;100.00
9774;BME280;4926;42.670;23.316;2023-04-02T04:56:23;93724.84;;;6.23;100.00
9774;BME280;4926;42.670;23.316;2023-04-02T04:58:54;93719.19;;;6.34;100.00
9774;BME280;4926;42.670;23.316;2023-04-02T05:01:26;93716.31;;;6.31;100.00
9774;BME280;4926;42.670;23.316;2023-04-02T05:03:58;93717.06;;;6.08;100.00
9774;BME280;4926;42.670;23.316;2023-04-02T05:06:34;93716.56;;;6.06;100.00
9774;BME280;4926;42.670;23.316;2023-04-02T05:09:10;93717.53;;;6.15;100.00
9774;BME280;4926;42.670;23.316;2023-04-02T05:11:42;93714.66;;;6.11;100.00
9774;BME280;4926;42.670;23.316;2023-04-02T05:14:20;93717.59;;;6.10;100.00
9774;BME280;4926;42.670;23.316;2023-04-02T05:16:55;93730.28;;;6.36;100.00
9774;BME280;4926;42.670;23.316;2023-04-02T05:19:29;93726.00;;;6.64;100.00
9774;BME280;4926;42.670;23.316;2023-04-02T05:22:01;93722.03;;;6.85;100.00
9774;BME280;4926;42.670;23.316;2023-04-02T05:25:06;93739.44;;;7.10;100.00
9774;BME280;4926;42.670;23.316;2023-04-02T05:27:43;93732.44;;;7.19;100.00
9774;BME280;4926;42.670;23.316;2023-04-02T05:30:31;93726.44;;;7.32;100.00
9774;BME280;4926;42.670;23.316;2023-04-02T05:33:05;93730.97;;;7.82;100.00
9774;BME280;4926;42.670;23.316;2023-04-02T05:35:43;93738.06;;;7.86;100.00
9774;BME280;4926;42.670;23.316;2023-04-02T05:38:19;93744.59;;;8.08;100.00
9774;BME280;4926;42.670;23.316;2023-04-02T05:40:51;93734.31;;;8.20;100.00
9774;BME280;4926;42.670;23.316;2023-04-02T05:43:24;93739.88;;;8.50;100.00
9774;BME280;4926;42.670;23.316;2023-04-02T05:45:53;93721.91;;;8.34;96.19
9774;BME280;4926;42.670;23.316;2023-04-02T05:48:25;93743.03;;;8.39;94.70
9774;BME280;4926;42.670;23.316;2023-04-02T05:50:56;93745.88;;;8.56;93.92
9774;BME280;4926;42.670;23.316;2023-04-02T05:53:26;93756.13;;;8.62;93.02
9774;BME280;4926;42.670;23.316;2023-04-02T05:55:56;93753.88;;;8.83;92.06
9774;BME280;4926;42.670;23.316;2023-04-02T05:58:28;93755.13;;;8.85;90.14
9774;BME280;4926;42.670;23.316;2023-04-02T06:01:20;93755.53;;;9.06;89.53
9774;BME280;4926;42.670;23.316;2023-04-02T06:03:54;93761.22;;;9.13;88.22
9774;BME280;4926;42.670;23.316;2023-04-02T06:06:42;93750.19;;;9.33;86.95
9774;BME280;4926;42.670;23.316;2023-04-02T06:09:12;93759.31;;;9.41;86.00
9774;BME280;4926;42.670;23.316;2023-04-02T06:11:45;93767.47;;;9.44;84.36
9774;BME280;4926;42.670;23.316;2023-04-02T06:14:22;93753.81;;;9.37;84.82
9774;BME280;4926;42.670;23.316;2023-04-02T06:16:49;93756.50;;;9.59;83.79
9774;BME280;4926;42.670;23.316;2023-04-02T06:19:24;93751.88;;;9.65;83.95
9774;BME280;4926;42.670;23.316;2023-04-02T06:22:05;93756.53;;;9.81;82.97
9774;BME280;4926;42.670;23.316;2023-04-02T06:24:34;93759.66;;;9.83;82.29
9774;BME280;4926;42.670;23.316;2023-04-02T06:27:04;93755.44;;;9.60;82.59
9774;BME280;4926;42.670;23.316;2023-04-02T06:29:33;93750.69;;;9.71;83.47
9774;BME280;4926;42.670;23.316;2023-04-02T06:32:05;93765.53;;;9.94;82.27
9774;BME280;4926;42.670;23.316;2023-04-02T06:34:37;93756.81;;;10.16;81.64
9774;BME280;4926;42.670;23.316;2023-04-02T06:37:21;93747.69;;;10.30;79.79
9774;BME280;4926;42.670;23.316;2023-04-02T06:39:48;93742.38;;;10.61;78.41
9774;BME280;4926;42.670;23.316;2023-04-02T06:42:17;93740.25;;;10.80;76.63
9774;BME280;4926;42.670;23.316;2023-04-02T06:44:46;93744.44;;;11.11;75.89
9774;BME280;4926;42.670;23.316;2023-04-02T06:47:21;93736.38;;;11.42;74.78
9774;BME280;4926;42.670;23.316;2023-04-02T06:49:53;93738.47;;;11.96;72.28
9774;BME280;4926;42.670;23.316;2023-04-02T06:52:30;93739.84;;;12.02;69.55
9774;BME280;4926;42.670;23.316;2023-04-02T06:55:04;93735.16;;;11.91;69.32
9774;BME280;4926;42.670;23.316;2023-04-02T06:57:35;93735.78;;;11.96;69.25
9774;BME280;4926;42.670;23.316;2023-04-02T07:00:02;93745.34;;;12.14;68.01
9774;BME280;4926;42.670;23.316;2023-04-02T07:02:32;93740.72;;;12.49;67.60
9774;BME280;4926;42.670;23.316;2023-04-02T07:05:05;93736.31;;;12.53;63.87
9774;BME280;4926;42.670;23.316;2023-04-02T07:07:34;93732.78;;;12.78;64.14
9774;BME280;4926;42.670;23.316;2023-04-02T07:10:01;93736.88;;;13.22;62.77
9774;BME280;4926;42.670;23.316;2023-04-02T07:12:28;93728.75;;;13.39;62.17
9774;BME280;4926;42.670;23.316;2023-04-02T07:14:55;93723.16;;;13.53;61.89
9774;BME280;4926;42.670;23.316;2023-04-02T07:17:21;93728.84;;;13.92;60.91
9774;BME280;4926;42.670;23.316;2023-04-02T07:19:48;93715.66;;;14.28;58.45
9774;BME280;4926;42.670;23.316;2023-04-02T07:22:18;93726.09;;;14.54;59.39
9774;BME280;4926;42.670;23.316;2023-04-02T07:24:47;93731.19;;;14.92;60.44
9774;BME280;4926;42.670;23.316;2023-04-02T07:27:14;93730.31;;;15.12;60.56
9774;BME280;4926;42.670;23.316;2023-04-02T07:29:41;93718.16;;;15.50;57.02
9774;BME280;4926;42.670;23.316;2023-04-02T07:32:11;93711.50;;;15.84;54.36
9774;BME280;4926;42.670;23.316;2023-04-02T07:34:40;93702.47;;;16.04;52.98
9774;BME280;4926;42.670;23.316;2023-04-02T07:37:12;93698.00;;;16.36;52.56
9774;BME280;4926;42.670;23.316;2023-04-02T07:39:41;93691.94;;;16.11;52.27
9774;BME280;4926;42.670;23.316;2023-04-02T07:42:09;93701.91;;;16.11;52.01
9774;BME280;4926;42.670;23.316;2023-04-02T07:44:41;93688.66;;;16.45;50.58
9774;BME280;4926;42.670;23.316;2023-04-02T07:47:11;93665.84;;;16.39;48.26
9774;BME280;4926;42.670;23.316;2023-04-02T07:49:38;93677.00;;;15.71;48.93
9774;BME280;4926;42.670;23.316;2023-04-02T07:52:06;93690.34;;;15.55;49.96
9774;BME280;4926;42.670;23.316;2023-04-02T07:54:32;93690.75;;;15.57;50.33
9774;BME280;4926;42.670;23.316;2023-04-02T07:57:00;93693.03;;;15.43;49.61
9774;BME280;4926;42.670;23.316;2023-04-02T07:59:28;93675.25;;;15.14;49.16
9774;BME280;4926;42.670;23.316;2023-04-02T08:01:57;93682.28;;;14.95;50.41
9774;BME280;4926;42.670;23.316;2023-04-02T08:04:24;93681.84;;;15.05;50.67
9774;BME280;4926;42.670;23.316;2023-04-02T08:06:51;93700.16;;;15.03;51.35
9774;BME280;4926;42.670;23.316;2023-04-02T08:09:18;93699.50;;;14.94;49.81
9774;BME280;4926;42.670;23.316;2023-04-02T08:11:47;93709.19;;;14.74;51.21
9774;BME280;4926;42.670;23.316;2023-04-02T08:14:21;93697.09;;;14.56;50.13
9774;BME280;4926;42.670;23.316;2023-04-02T08:16:50;93711.41;;;14.72;50.02
9774;BME280;4926;42.670;23.316;2023-04-02T08:19:18;93711.78;;;14.95;50.15
9774;BME280;4926;42.670;23.316;2023-04-02T08:21:45;93690.44;;;15.10;48.67
9774;BME280;4926;42.670;23.316;2023-04-02T08:24:14;93701.28;;;15.26;48.16
9774;BME280;4926;42.670;23.316;2023-04-02T08:26:43;93699.28;;;15.47;48.58
9774;BME280;4926;42.670;23.316;2023-04-02T08:29:10;93690.22;;;15.91;47.54
9774;BME280;4926;42.670;23.316;2023-04-02T08:31:36;93692.09;;;16.30;46.99
9774;BME280;4926;42.670;23.316;2023-04-02T08:34:05;93698.84;;;16.24;47.19
9774;BME280;4926;42.670;23.316;2023-04-02T08:36:33;93685.41;;;16.52;45.71
9774;BME280;4926;42.670;23.316;2023-04-02T08:39:02;93677.81;;;16.42;45.28
9774;BME280;4926;42.670;23.316;2023-04-02T08:41:35;93683.09;;;16.38;45.85
9774;BME280;4926;42.670;23.316;2023-04-02T08:44:38;93680.59;;;16.73;45.59
9774;BME280;4926;42.670;23.316;2023-04-02T08:47:07;93680.91;;;17.34;45.43
9774;BME280;4926;42.670;23.316;2023-04-02T08:49:39;93669.84;;;17.89;44.10
9774;BME280;4926;42.670;23.316;2023-04-02T08:52:19;93667.50;;;18.26;42.89
9774;BME280;4926;42.670;23.316;2023-04-02T08:54:50;93669.13;;;17.73;42.44
9774;BME280;4926;42.670;23.316;2023-04-02T08:57:23;93671.06;;;16.91;44.04
9774;BME280;4926;42.670;23.316;2023-04-02T08:59:55;93670.31;;;17.25;44.89
9774;BME280;4926;42.670;23.316;2023-04-02T09:02:28;93672.97;;;17.41;44.11
9774;BME280;4926;42.670;23.316;2023-04-02T09:05:02;93667.72;;;17.79;42.97
9774;BME280;4926;42.670;23.316;2023-04-02T09:07:30;93662.78;;;18.19;41.64
9774;BME280;4926;42.670;23.316;2023-04-02T09:09:58;93650.84;;;18.20;40.70
9774;BME280;4926;42.670;23.316;2023-04-02T09:12:27;93639.50;;;18.72;39.76
9774;BME280;4926;42.670;23.316;2023-04-02T09:15:10;93634.78;;;18.65;39.99
9774;BME280;4926;42.670;23.316;2023-04-02T09:17:42;93626.44;;;18.97;39.28
9774;BME280;4926;42.670;23.316;2023-04-02T09:20:15;93631.28;;;19.10;39.30
9774;BME280;4926;42.670;23.316;2023-04-02T09:22:44;93619.88;;;19.72;39.08
9774;BME280;4926;42.670;23.316;2023-04-02T09:25:16;93616.31;;;19.98;37.69
9774;BME280;4926;42.670;23.316;2023-04-02T09:27:46;93612.00;;;19.90;37.20
9774;BME280;4926;42.670;23.316;2023-04-02T09:30:22;93622.19;;;18.96;38.60
9774;BME280;4926;42.670;23.316;2023-04-02T09:32:52;93621.66;;;18.22;39.73
9774;BME280;4926;42.670;23.316;2023-04-02T09:35:22;93636.03;;;17.72;40.61
9774;BME280;4926;42.670;23.316;2023-04-02T09:38:10;93631.56;;;17.26;41.03
9774;BME280;4926;42.670;23.316;2023-04-02T09:40:45;93655.41;;;17.28;42.11
9774;BME280;4926;42.670;23.316;2023-04-02T09:43:18;93634.84;;;17.89;40.53
9774;BME280;4926;42.670;23.316;2023-04-02T09:45:55;93624.09;;;17.89;40.17
9774;BME280;4926;42.670;23.316;2023-04-02T09:48:27;93639.72;;;18.03;40.29
9774;BME280;4926;42.670;23.316;2023-04-02T09:51:05;93637.41;;;17.82;40.88
9774;BME280;4926;42.670;23.316;2023-04-02T09:53:39;93632.31;;;17.77;41.01
9774;BME280;4926;42.670;23.316;2023-04-02T09:56:14;93626.69;;;17.32;41.55
9774;BME280;4926;42.670;23.316;2023-04-02T09:58:44;93631.69;;;17.49;41.82
9774;BME280;4926;42.670;23.316;2023-04-02T10:01:30;93619.72;;;17.31;40.82
9774;BME280;4926;42.670;23.316;2023-04-02T10:03:58;93624.34;;;17.15;40.52
9774;BME280;4926;42.670;23.316;2023-04-02T10:06:27;93624.56;;;17.41;40.71
9774;BME280;4926;42.670;23.316;2023-04-02T10:08:57;93615.84;;;17.63;40.75
9774;BME280;4926;42.670;23.316;2023-04-02T10:11:28;93619.97;;;17.76;41.25
9774;BME280;4926;42.670;23.316;2023-04-02T10:13:58;93610.59;;;17.51;40.42
9774;BME280;4926;42.670;23.316;2023-04-02T10:16:30;93605.22;;;18.08;39.83
9774;BME280;4926;42.670;23.316;2023-04-02T10:18:59;93599.91;;;18.53;38.68
9774;BME280;4926;42.670;23.316;2023-04-02T10:21:31;93591.63;;;18.65;38.10
9774;BME280;4926;42.670;23.316;2023-04-02T10:24:00;93582.47;;;18.92;37.83
9774;BME280;4926;42.670;23.316;2023-04-02T10:26:37;93601.69;;;18.68;39.91
9774;BME280;4926;42.670;23.316;2023-04-02T10:29:14;93604.59;;;17.96;41.45
9774;BME280;4926;42.670;23.316;2023-04-02T10:31:55;93609.59;;;17.59;41.85
9774;BME280;4926;42.670;23.316;2023-04-02T10:34:33;93628.69;;;17.19;42.48
9774;BME280;4926;42.670;23.316;2023-04-02T10:37:10;93633.25;;;16.68;43.89
9774;BME280;4926;42.670;23.316;2023-04-02T10:39:46;93650.84;;;16.50;44.55
9774;BME280;4926;42.670;23.316;2023-04-02T10:42:25;93642.50;;;16.55;44.53
9774;BME280;4926;42.670;23.316;2023-04-02T10:44:59;93642.34;;;16.80;44.62
9774;BME280;4926;42.670;23.316;2023-04-02T10:47:34;93644.31;;;16.51;45.37
9774;BME280;4926;42.670;23.316;2023-04-02T10:50:24;93637.97;;;16.44;45.11
9774;BME280;4926;42.670;23.316;2023-04-02T10:53:01;93645.09;;;16.09;44.69
9774;BME280;4926;42.670;23.316;2023-04-02T10:55:33;93640.06;;;16.07;44.58
9774;BME280;4926;42.670;23.316;2023-04-02T10:58:16;93639.13;;;16.15;44.70
9774;BME280;4926;42.670;23.316;2023-04-02T11:00:46;93639.25;;;16.34;45.04
9774;BME280;4926;42.670;23.316;2023-04-02T11:03:15;93630.09;;;17.13;43.84
9774;BME280;4926;42.670;23.316;2023-04-02T11:05:46;93615.28;;;18.11;42.12
9774;BME280;4926;42.670;23.316;2023-04-02T11:08:18;93593.03;;;19.05;41.13
9774;BME280;4926;42.670;23.316;2023-04-02T11:10:50;93605.09;;;19.37;40.33
9774;BME280;4926;42.670;23.316;2023-04-02T11:13:21;93592.69;;;19.58;40.07
9774;BME280;4926;42.670;23.316;2023-04-02T11:15:50;93578.34;;;20.17;38.87
9774;BME280;4926;42.670;23.316;2023-04-02T11:18:22;93580.53;;;20.38;38.75
9774;BME280;4926;42.670;23.316;2023-04-02T11:23:56;93599.22;;;18.82;39.96
9774;BME280;4926;42.670;23.316;2023-04-02T11:26:39;93608.41;;;18.55;40.47
9774;BME280;4926;42.670;23.316;2023-04-02T11:29:13;93594.50;;;18.53;40.38
9774;BME280;4926;42.670;23.316;2023-04-02T11:31:43;93596.06;;;18.54;40.33
9774;BME280;4926;42.670;23.316;2023-04-02T11:34:16;93580.69;;;19.04;39.37
9774;BME280;4926;42.670;23.316;2023-04-02T11:37:08;93580.81;;;19.37;39.00
9774;BME280;4926;42.670;23.316;2023-04-02T11:39:49;93571.81;;;19.85;38.83
9774;BME280;4926;42.670;23.316;2023-04-02T11:42:28;93561.13;;;20.72;37.31
9774;BME280;4926;42.670;23.316;2023-04-02T11:44:58;93551.31;;;20.17;37.65
9774;BME280;4926;42.670;23.316;2023-04-02T11:47:27;93560.06;;;20.07;37.90
9774;BME280;4926;42.670;23.316;2023-04-02T11:50:00;93551.38;;;20.21;37.25
9774;BME280;4926;42.670;23.316;2023-04-02T11:52:33;93551.19;;;20.83;36.59
9774;BME280;4926;42.670;23.316;2023-04-02T11:55:21;93539.69;;;20.97;36.83
9774;BME280;4926;42.670;23.316;2023-04-02T11:57:55;93541.25;;;21.66;36.61
9774;BME280;4926;42.670;23.316;2023-04-02T12:03:27;93525.63;;;22.32;34.09
9774;BME280;4926;42.670;23.316;2023-04-02T12:06:00;93519.97;;;21.65;35.16
9774;BME280;4926;42.670;23.316;2023-04-02T12:08:38;93544.56;;;20.00;37.36
9774;BME280;4926;42.670;23.316;2023-04-02T12:11:08;93550.06;;;20.44;37.76
9774;BME280;4926;42.670;23.316;2023-04-02T12:13:52;93544.75;;;20.98;36.31
9774;BME280;4926;42.670;23.316;2023-04-02T12:16:23;93533.16;;;21.70;35.01
9774;BME280;4926;42.670;23.316;2023-04-02T12:18:56;93527.19;;;22.40;35.18
9774;BME280;4926;42.670;23.316;2023-04-02T12:21:25;93520.19;;;22.21;34.43
9774;BME280;4926;42.670;23.316;2023-04-02T12:23:57;93533.88;;;21.60;35.37
9774;BME280;4926;42.670;23.316;2023-04-02T12:26:28;93538.00;;;21.36;35.35
9774;BME280;4926;42.670;23.316;2023-04-02T12:29:14;93530.81;;;21.65;34.89
9774;BME280;4926;42.670;23.316;2023-04-02T12:31:42;93532.88;;;21.21;35.36
9774;BME280;4926;42.670;23.316;2023-04-02T12:34:13;93534.34;;;21.04;35.27
9774;BME280;4926;42.670;23.316;2023-04-02T12:36:50;93522.09;;;21.28;35.19
9774;BME280;4926;42.670;23.316;2023-04-02T12:39:18;93514.69;;;21.89;34.68
9774;BME280;4926;42.670;23.316;2023-04-02T12:41:47;93507.03;;;22.37;33.94
9774;BME280;4926;42.670;23.316;2023-04-02T12:44:15;93497.00;;;22.59;33.25
9774;BME280;4926;42.670;23.316;2023-04-02T12:46:42;93493.88;;;22.95;33.25
9774;BME280;4926;42.670;23.316;2023-04-02T12:49:20;93500.09;;;22.85;33.11
9774;BME280;4926;42.670;23.316;2023-04-02T12:51:49;93486.09;;;23.11;32.52
9774;BME280;4926;42.670;23.316;2023-04-02T12:54:17;93482.06;;;23.69;31.72
9774;BME280;4926;42.670;23.316;2023-04-02T12:56:47;93472.13;;;23.16;32.03
9774;BME280;4926;42.670;23.316;2023-04-02T12:59:28;93482.63;;;23.07;32.71
9774;BME280;4926;42.670;23.316;2023-04-02T13:01:56;93466.09;;;23.78;31.15
9774;BME280;4926;42.670;23.316;2023-04-02T13:04:26;93454.81;;;24.48;30.49
9774;BME280;4926;42.670;23.316;2023-04-02T13:06:56;93449.78;;;24.47;30.31
9774;BME280;4926;42.670;23.316;2023-04-02T13:09:34;93448.75;;;23.58;31.18
9774;BME280;4926;42.670;23.316;2023-04-02T13:12:22;93457.03;;;23.08;31.85
9774;BME280;4926;42.670;23.316;2023-04-02T13:14:51;93465.94;;;23.16;31.75
9774;BME280;4926;42.670;23.316;2023-04-02T13:17:40;93453.88;;;23.27;31.61
9774;BME280;4926;42.670;23.316;2023-04-02T13:20:27;93460.47;;;23.27;31.50
9774;BME280;4926;42.670;23.316;2023-04-02T13:22:55;93469.00;;;23.21;31.54
9774;BME280;4926;42.670;23.316;2023-04-02T13:25:25;93465.50;;;23.46;30.92
9774;BME280;4926;42.670;23.316;2023-04-02T13:27:55;93459.28;;;23.38;31.13
9774;BME280;4926;42.670;23.316;2023-04-02T13:30:26;93470.59;;;23.08;31.12
9774;BME280;4926;42.670;23.316;2023-04-02T13:32:53;93467.41;;;23.52;30.91
9774;BME280;4926;42.670;23.316;2023-04-02T13:35:20;93456.16;;;23.47;31.27
9774;BME280;4926;42.670;23.316;2023-04-02T13:37:47;93446.22;;;24.05;30.41
9774;BME280;4926;42.670;23.316;2023-04-02T13:40:18;93441.16;;;24.00;30.33
9774;BME280;4926;42.670;23.316;2023-04-02T13:42:49;93447.09;;;23.78;30.20
9774;BME280;4926;42.670;23.316;2023-04-02T13:45:26;93448.47;;;23.20;30.46
9774;BME280;4926;42.670;23.316;2023-04-02T13:47:53;93458.91;;;21.78;31.54
9774;BME280;4926;42.670;23.316;2023-04-02T13:50:22;93474.69;;;20.90;32.50
9774;BME280;4926;42.670;23.316;2023-04-02T13:52:50;93478.09;;;20.26;33.26
9774;BME280;4926;42.670;23.316;2023-04-02T13:55:21;93484.28;;;19.93;33.94